Time;durP1;ratioP1;P1;durP2;ratioP2;P2;SDS_P1;SDS_P2;PMS_P1;PMS_P2;Temp;Humidity;BMP_temperature;BMP_pressure;BME280_temperature;BME280_humidity;BME280_pressure;Samples;Min_cycle;Max_cycle;Signal;HPM_P1;HPM_P2
2022/08/28 00:00:41;;;;;;;11.07;5.47;;;12.70;99.90;;;;;;5110621;28;20044;-64
2022/08/28 00:03:09;;;;;;;10.88;5.30;;;12.70;99.90;;;;;;5098751;28;20040;-64
2022/08/28 00:05:35;;;;;;;12.93;5.63;;;12.70;99.90;;;;;;5109659;28;20067;-64
2022/08/28 00:08:01;;;;;;;10.75;5.55;;;12.60;99.90;;;;;;5110518;28;20063;-64
2022/08/28 00:10:27;;;;;;;13.90;5.43;;;12.70;99.90;;;;;;5106165;28;20451;-64
2022/08/28 00:12:56;;;;;;;13.50;5.22;;;12.70;99.90;;;;;;5092815;28;20131;-64
2022/08/28 00:15:29;;;;;;;17.27;5.70;;;12.70;99.90;;;;;;5109428;28;20497;-64
2022/08/28 00:17:55;;;;;;;14.13;5.45;;;12.70;99.90;;;;;;5110087;28;20053;-64
2022/08/28 00:20:22;;;;;;;15.95;5.65;;;12.70;99.90;;;;;;5091949;28;20035;-64
2022/08/28 00:22:49;;;;;;;12.18;5.35;;;12.60;99.90;;;;;;5106058;28;20032;-64
2022/08/28 00:25:16;;;;;;;15.65;5.30;;;12.50;99.90;;;;;;5110337;28;20035;-64
2022/08/28 00:27:51;;;;;;;14.30;5.50;;;12.50;99.90;;;;;;5104207;28;20032;-64
2022/08/28 00:30:22;;;;;;;13.38;5.88;;;12.40;99.90;;;;;;5109306;28;20040;-64
2022/08/28 00:32:48;;;;;;;14.52;5.93;;;12.40;99.90;;;;;;5109727;28;20093;-64
2022/08/28 00:35:16;;;;;;;13.15;5.47;;;12.40;99.90;;;;;;5107085;28;20036;-64
2022/08/28 00:37:42;;;;;;;16.15;5.80;;;12.40;99.90;;;;;;5105259;28;20984;-64
2022/08/28 00:40:09;;;;;;;13.52;5.25;;;12.40;99.90;;;;;;5109591;28;20047;-64
2022/08/28 00:42:37;;;;;;;11.50;5.30;;;12.40;99.90;;;;;;5109919;28;20088;-64
2022/08/28 00:45:04;;;;;;;10.80;5.20;;;12.40;99.90;;;;;;5107205;28;20155;-64
2022/08/28 00:47:29;;;;;;;11.70;5.22;;;12.40;99.90;;;;;;5109178;28;20035;-64
2022/08/28 00:49:55;;;;;;;15.90;5.47;;;12.40;99.90;;;;;;5109804;28;20405;-64
2022/08/28 00:52:24;;;;;;;12.48;5.20;;;12.40;99.90;;;;;;5105818;28;20114;-64
2022/08/28 00:55:07;;;;;;;9.60;5.07;;;12.30;99.90;;;;;;5104537;28;20600;-63
2022/08/28 00:57:39;;;;;;;11.48;5.43;;;12.30;99.90;;;;;;5109519;28;20081;-64
2022/08/28 01:00:10;;;;;;;12.70;5.20;;;12.30;99.90;;;;;;5109938;28;20127;-64
2022/08/28 01:02:36;;;;;;;13.10;5.15;;;12.30;99.90;;;;;;5104066;28;20035;-64
2022/08/28 01:05:03;;;;;;;11.60;5.00;;;12.20;99.90;;;;;;5109390;28;20451;-64
2022/08/28 01:07:29;;;;;;;13.27;5.18;;;12.20;99.90;;;;;;5109891;28;20378;-64
2022/08/28 01:09:55;;;;;;;16.13;5.18;;;12.20;99.90;;;;;;5103934;28;20047;-64
2022/08/28 01:12:25;;;;;;;14.25;4.97;;;12.20;99.90;;;;;;5107793;28;20042;-64
2022/08/28 01:14:58;;;;;;;15.13;5.10;;;12.20;99.90;;;;;;5107175;28;20086;-64
2022/08/28 01:17:27;;;;;;;14.52;5.07;;;12.30;99.90;;;;;;5117083;28;20509;-64
2022/08/28 01:19:57;;;;;;;11.52;4.93;;;12.30;99.90;;;;;;5106366;28;20043;-64
2022/08/28 01:22:43;;;;;;;10.93;5.18;;;12.30;99.90;;;;;;5109163;28;20035;-64
2022/08/28 01:25:13;;;;;;;11.90;4.85;;;12.20;99.90;;;;;;5109990;28;20124;-64
2022/08/28 01:27:40;;;;;;;12.85;5.18;;;12.20;99.90;;;;;;5101468;28;20056;-64
2022/08/28 01:30:09;;;;;;;13.85;5.60;;;12.20;99.90;;;;;;5108734;28;20035;-64
2022/08/28 01:32:42;;;;;;;11.50;5.15;;;12.20;99.90;;;;;;5091570;28;20052;-64
2022/08/28 01:35:12;;;;;;;12.55;5.35;;;12.20;99.90;;;;;;5105894;28;20089;-64
2022/08/28 01:37:38;;;;;;;10.23;5.30;;;12.20;99.90;;;;;;5108923;28;20071;-64
2022/08/28 01:40:06;;;;;;;13.90;5.13;;;12.20;99.90;;;;;;5113234;28;20327;-64
2022/08/28 01:42:42;;;;;;;12.50;4.95;;;12.10;99.90;;;;;;5111224;28;20046;-64
2022/08/28 01:45:12;;;;;;;15.57;5.13;;;12.20;99.90;;;;;;5110055;28;20073;-64
2022/08/28 01:47:38;;;;;;;10.65;5.22;;;12.10;99.90;;;;;;5098620;28;20057;-64
2022/08/28 01:50:07;;;;;;;11.48;5.07;;;12.10;99.90;;;;;;5092359;28;20474;-64
2022/08/28 01:52:33;;;;;;;18.98;5.22;;;12.10;99.90;;;;;;5093027;28;20081;-64
2022/08/28 01:54:59;;;;;;;12.18;5.43;;;12.10;99.90;;;;;;5109173;28;20031;-64
2022/08/28 01:57:25;;;;;;;11.80;5.13;;;12.10;99.90;;;;;;5113005;28;20544;-64
2022/08/28 01:59:51;;;;;;;10.25;5.38;;;12.10;99.90;;;;;;5107062;28;20043;-64
2022/08/28 02:02:16;;;;;;;13.15;5.47;;;12.00;99.90;;;;;;5110217;28;20054;-64
2022/08/28 02:04:42;;;;;;;14.05;5.60;;;12.00;99.90;;;;;;5099366;28;20039;-64
2022/08/28 02:07:08;;;;;;;18.83;5.05;;;12.00;99.90;;;;;;5092713;28;20039;-64
2022/08/28 02:09:34;;;;;;;14.60;5.82;;;12.00;99.90;;;;;;5097271;28;20051;-64
2022/08/28 02:12:00;;;;;;;14.02;5.20;;;12.10;99.90;;;;;;5112073;28;20054;-64
2022/08/28 02:14:25;;;;;;;9.85;5.10;;;12.00;99.90;;;;;;5112533;28;20395;-64
2022/08/28 02:16:51;;;;;;;14.27;5.65;;;12.00;99.90;;;;;;5106601;28;20134;-64
2022/08/28 02:19:19;;;;;;;12.27;5.85;;;12.00;99.90;;;;;;5102566;28;20034;-64
2022/08/28 02:21:45;;;;;;;10.75;5.30;;;11.90;99.90;;;;;;5107059;28;20035;-64
2022/08/28 02:24:11;;;;;;;13.20;5.45;;;11.90;99.90;;;;;;5113233;28;20493;-64
2022/08/28 02:26:36;;;;;;;14.57;6.40;;;11.80;99.90;;;;;;5113333;28;20042;-64
2022/08/28 02:29:03;;;;;;;13.98;5.60;;;11.90;99.90;;;;;;5099990;28;20118;-64
2022/08/28 02:31:29;;;;;;;15.13;6.10;;;11.90;99.90;;;;;;5104694;28;20032;-64
2022/08/28 02:33:54;;;;;;;15.45;6.15;;;11.80;99.90;;;;;;5102585;28;20062;-64
2022/08/28 02:36:20;;;;;;;13.63;6.03;;;11.80;99.90;;;;;;5109842;28;20063;-64
2022/08/28 02:38:46;;;;;;;10.50;5.72;;;11.80;99.90;;;;;;5112802;28;20071;-64
2022/08/28 02:41:12;;;;;;;12.45;5.53;;;11.80;99.90;;;;;;5109805;28;20397;-64
2022/08/28 02:43:38;;;;;;;14.80;6.50;;;11.70;99.90;;;;;;5107506;28;20043;-64
2022/08/28 02:46:05;;;;;;;12.70;6.15;;;11.70;99.90;;;;;;5103461;28;20039;-64
2022/08/28 02:48:33;;;;;;;13.52;6.72;;;11.70;99.90;;;;;;5113100;28;20062;-63
2022/08/28 02:51:01;;;;;;;16.25;6.40;;;11.70;99.90;;;;;;5099258;28;20522;-64
2022/08/28 02:53:28;;;;;;;15.90;6.47;;;11.70;99.90;;;;;;5107991;28;20035;-64
2022/08/28 02:55:53;;;;;;;12.82;6.43;;;11.70;99.90;;;;;;5105627;28;20043;-64
2022/08/28 02:58:19;;;;;;;9.35;6.45;;;11.70;99.90;;;;;;5092300;28;20398;-64
2022/08/28 03:00:45;;;;;;;13.93;6.35;;;11.60;99.90;;;;;;5098131;28;20662;-64
2022/08/28 03:03:11;;;;;;;14.18;6.60;;;11.60;99.90;;;;;;5109561;28;20401;-64
2022/08/28 03:05:36;;;;;;;11.73;5.65;;;11.50;99.90;;;;;;5126209;27;20034;-64
2022/08/28 03:08:03;;;;;;;11.98;6.45;;;11.30;99.90;;;;;;5083119;28;20039;-64
2022/08/28 03:10:29;;;;;;;12.27;6.10;;;11.30;99.90;;;;;;5112066;28;20042;-64
2022/08/28 03:12:55;;;;;;;17.48;6.82;;;11.20;99.90;;;;;;5112041;28;20386;-64
2022/08/28 03:15:20;;;;;;;16.65;7.07;;;11.10;99.90;;;;;;5112156;28;20053;-64
2022/08/28 03:17:46;;;;;;;16.92;6.75;;;11.10;99.90;;;;;;5105362;28;20035;-64
2022/08/28 03:20:13;;;;;;;14.35;6.43;;;11.10;99.90;;;;;;5111756;28;20088;-64
2022/08/28 03:23:25;;;;;;;15.77;6.95;;;11.10;99.90;;;;;;5112221;28;20486;-64
2022/08/28 03:25:25;;;;;;;13.15;6.18;;;11.10;99.90;;;;;;5093676;28;20039;-64
2022/08/28 03:27:51;;;;;;;17.17;6.82;;;11.20;99.90;;;;;;5111694;28;20122;-64
2022/08/28 03:30:18;;;;;;;17.70;7.00;;;11.20;99.90;;;;;;5112274;28;20039;-64
2022/08/28 03:32:44;;;;;;;14.35;6.55;;;11.20;99.90;;;;;;5106370;28;20039;-64
2022/08/28 03:35:10;;;;;;;15.73;6.95;;;11.20;99.90;;;;;;5108747;28;20096;-64
2022/08/28 03:37:37;;;;;;;14.52;7.18;;;11.30;99.90;;;;;;5111498;28;20079;-64
2022/08/28 03:40:04;;;;;;;16.08;7.10;;;11.30;99.90;;;;;;5091161;28;20051;-64
2022/08/28 03:42:30;;;;;;;13.45;7.25;;;11.30;99.90;;;;;;5102586;28;20066;-64
2022/08/28 03:44:56;;;;;;;18.33;7.30;;;11.20;99.90;;;;;;5102340;28;20074;-64
2022/08/28 03:47:23;;;;;;;16.00;7.22;;;11.20;99.90;;;;;;5111287;28;20494;-64
2022/08/28 03:49:56;;;;;;;19.90;7.53;;;11.20;99.90;;;;;;5111306;28;20043;-64
2022/08/28 03:52:23;;;;;;;21.13;6.90;;;11.20;99.90;;;;;;5099447;28;20461;-64
2022/08/28 03:54:49;;;;;;;17.92;6.85;;;11.20;99.90;;;;;;5105832;28;20485;-64
2022/08/28 03:57:19;;;;;;;12.65;6.85;;;11.20;99.90;;;;;;5104939;28;20035;-64
2022/08/28 03:59:47;;;;;;;13.40;6.95;;;11.10;99.90;;;;;;5105106;28;20035;-64
2022/08/28 04:02:12;;;;;;;14.13;6.72;;;11.10;99.90;;;;;;5110833;28;20508;-64
2022/08/28 04:04:38;;;;;;;15.60;7.22;;;11.10;99.90;;;;;;5111519;28;20035;-64
2022/08/28 04:07:04;;;;;;;10.85;6.95;;;11.00;99.90;;;;;;5104334;28;20043;-64
2022/08/28 04:09:29;;;;;;;20.33;6.47;;;11.00;99.90;;;;;;5110296;28;20070;-64
2022/08/28 04:11:55;;;;;;;13.65;7.07;;;11.00;99.90;;;;;;5110780;28;20044;-64
2022/08/28 04:14:20;;;;;;;14.10;6.75;;;11.00;99.90;;;;;;5101103;28;20032;-64
2022/08/28 04:16:48;;;;;;;15.23;7.03;;;11.00;99.90;;;;;;5098996;28;20020;-64
2022/08/28 04:19:14;;;;;;;18.15;6.85;;;10.90;99.90;;;;;;5110774;28;20082;-64
2022/08/28 04:21:39;;;;;;;15.48;6.25;;;11.00;99.90;;;;;;5110850;28;20516;-64
2022/08/28 04:24:05;;;;;;;15.90;6.88;;;10.90;99.90;;;;;;5105595;28;20040;-64
2022/08/28 04:26:35;;;;;;;14.35;6.90;;;11.00;99.90;;;;;;5105479;28;20042;-64
2022/08/28 04:29:01;;;;;;;12.55;6.18;;;10.90;99.90;;;;;;5110957;28;20040;-64
2022/08/28 04:31:27;;;;;;;15.60;7.05;;;10.90;99.90;;;;;;5108244;28;20093;-64
2022/08/28 04:33:54;;;;;;;12.02;6.50;;;10.90;99.90;;;;;;5110218;28;20035;-64
2022/08/28 04:36:20;;;;;;;14.27;7.03;;;10.90;99.90;;;;;;5110226;28;20563;-64
2022/08/28 04:38:46;;;;;;;18.73;7.10;;;10.90;99.90;;;;;;5111119;28;20562;-64
2022/08/28 04:41:14;;;;;;;16.27;6.30;;;11.00;99.90;;;;;;5101842;28;20031;-63
2022/08/28 04:43:41;;;;;;;12.82;6.57;;;11.10;99.90;;;;;;5099525;28;20036;-63
2022/08/28 04:46:10;;;;;;;16.77;7.05;;;11.10;99.90;;;;;;5103001;28;20481;-64
2022/08/28 04:48:37;;;;;;;18.83;7.32;;;11.10;99.90;;;;;;5101971;28;20032;-63
2022/08/28 04:51:08;;;;;;;11.15;6.10;;;11.20;99.90;;;;;;5098492;28;20382;-63
2022/08/28 04:53:35;;;;;;;14.50;6.53;;;11.20;99.90;;;;;;5077471;28;20082;-63
2022/08/28 04:56:03;;;;;;;15.10;6.72;;;11.10;99.90;;;;;;5080872;28;20079;-63
2022/08/28 04:58:31;;;;;;;15.05;6.70;;;11.10;99.90;;;;;;5102501;28;20035;-64
2022/08/28 05:00:57;;;;;;;11.52;6.50;;;11.20;99.90;;;;;;5108610;28;20074;-63
2022/08/28 05:03:22;;;;;;;13.07;6.25;;;11.20;99.90;;;;;;5101990;28;20457;-63
2022/08/28 05:05:51;;;;;;;13.60;6.47;;;11.20;99.90;;;;;;5093311;28;20112;-63
2022/08/28 05:08:20;;;;;;;13.25;6.55;;;11.20;99.90;;;;;;5111563;28;20031;-63
2022/08/28 05:10:46;;;;;;;12.32;6.38;;;11.20;99.90;;;;;;5103842;28;20114;-63
2022/08/28 05:13:14;;;;;;;11.65;6.10;;;11.20;99.90;;;;;;5113737;28;20569;-64
2022/08/28 05:15:45;;;;;;;17.25;7.10;;;11.30;99.90;;;;;;5104708;28;20032;-63
2022/08/28 05:18:15;;;;;;;11.68;5.68;;;11.30;99.90;;;;;;5111318;28;20532;-63
2022/08/28 05:20:43;;;;;;;15.18;5.63;;;11.20;99.90;;;;;;5105955;28;20035;-63
2022/08/28 05:23:09;;;;;;;14.90;5.70;;;11.30;99.90;;;;;;5103795;28;20214;-63
2022/08/28 05:25:38;;;;;;;16.55;6.07;;;11.30;99.90;;;;;;5108713;28;20032;-63
2022/08/28 05:28:05;;;;;;;14.35;6.00;;;11.30;99.90;;;;;;5112840;28;20031;-63
2022/08/28 05:30:31;;;;;;;11.55;6.18;;;11.40;99.90;;;;;;5105514;28;20520;-64
2022/08/28 05:32:58;;;;;;;12.15;5.72;;;11.40;99.90;;;;;;5104048;28;20070;-64
2022/08/28 05:35:25;;;;;;;16.98;5.95;;;11.50;99.90;;;;;;5110175;28;20089;-64
2022/08/28 05:37:54;;;;;;;12.52;5.95;;;11.50;99.90;;;;;;5106876;28;20123;-64
2022/08/28 05:40:23;;;;;;;15.32;5.65;;;11.60;99.90;;;;;;5104527;28;20477;-64
2022/08/28 05:42:51;;;;;;;15.85;5.82;;;11.60;99.90;;;;;;5110773;28;20042;-64
2022/08/28 05:45:17;;;;;;;12.80;5.60;;;11.60;99.90;;;;;;5110966;28;20097;-64
2022/08/28 05:47:43;;;;;;;14.05;6.25;;;11.60;99.90;;;;;;5109304;28;20713;-63
2022/08/28 05:50:12;;;;;;;13.20;5.72;;;11.70;99.90;;;;;;5099188;28;20046;-64
2022/08/28 05:52:41;;;;;;;10.82;5.28;;;11.60;99.90;;;;;;5110568;28;20038;-64
2022/08/28 05:55:09;;;;;;;14.50;6.05;;;11.70;99.90;;;;;;5107804;28;20163;-64
2022/08/28 05:57:34;;;;;;;7.97;5.22;;;11.70;99.90;;;;;;5106463;28;20443;-64
2022/08/28 06:00:01;;;;;;;13.13;5.97;;;11.80;99.90;;;;;;5110691;28;20056;-63
2022/08/28 06:02:26;;;;;;;10.60;5.85;;;11.90;99.90;;;;;;5105452;28;20040;-64
2022/08/28 06:04:53;;;;;;;17.42;6.20;;;12.10;99.90;;;;;;5090710;28;20532;-64
2022/08/28 06:07:19;;;;;;;14.02;5.60;;;12.30;99.90;;;;;;5109061;28;20050;-64
2022/08/28 06:09:45;;;;;;;11.50;5.63;;;12.50;99.90;;;;;;5093229;28;20032;-64
2022/08/28 06:12:11;;;;;;;15.15;5.80;;;12.70;99.90;;;;;;5095696;28;20039;-64
2022/08/28 06:14:36;;;;;;;14.45;5.45;;;12.80;99.90;;;;;;5102777;28;20032;-64
2022/08/28 06:17:03;;;;;;;12.05;5.90;;;12.80;99.90;;;;;;5110422;28;20042;-63
2022/08/28 06:19:31;;;;;;;14.15;5.68;;;12.90;99.90;;;;;;5091421;28;20039;-63
2022/08/28 06:22:00;;;;;;;12.20;5.20;;;13.00;99.90;;;;;;5101719;28;20044;-63
2022/08/28 06:24:28;;;;;;;13.63;5.15;;;13.10;99.90;;;;;;5105027;28;20027;-63
2022/08/28 06:26:54;;;;;;;13.43;4.97;;;13.20;99.90;;;;;;5109955;28;20044;-63
2022/08/28 06:29:21;;;;;;;12.77;4.97;;;13.30;99.90;;;;;;5110412;28;20043;-63
2022/08/28 06:31:51;;;;;;;13.07;4.57;;;13.40;99.90;;;;;;5104988;28;20040;-64
2022/08/28 06:34:17;;;;;;;10.93;4.43;;;13.50;99.90;;;;;;5110090;28;20115;-64
2022/08/28 06:36:43;;;;;;;10.38;4.68;;;13.60;99.90;;;;;;5110313;28;20039;-64
2022/08/28 06:39:10;;;;;;;9.63;4.70;;;13.70;99.90;;;;;;5103527;28;20039;-64
2022/08/28 06:41:41;;;;;;;12.70;4.57;;;13.80;99.90;;;;;;5099369;28;20039;-64
2022/08/28 06:44:13;;;;;;;11.90;4.53;;;13.90;99.90;;;;;;5092713;28;20035;-64
2022/08/28 06:46:40;;;;;;;10.07;4.90;;;14.00;99.90;;;;;;5092501;28;20043;-64
2022/08/28 06:49:07;;;;;;;13.10;4.47;;;14.00;99.90;;;;;;5096661;28;20077;-64
2022/08/28 06:51:34;;;;;;;8.07;4.00;;;14.10;99.90;;;;;;5101346;28;20049;-65
2022/08/28 06:54:00;;;;;;;9.70;4.13;;;14.20;99.90;;;;;;5105450;28;20107;-64
2022/08/28 06:56:26;;;;;;;12.27;3.85;;;14.40;99.90;;;;;;5109116;28;20557;-65
2022/08/28 06:58:53;;;;;;;14.52;3.78;;;14.40;99.90;;;;;;5109582;28;20131;-64
2022/08/28 07:01:22;;;;;;;9.23;3.67;;;14.60;99.90;;;;;;5095864;28;20035;-65
2022/08/28 07:03:51;;;;;;;10.63;3.70;;;14.70;99.90;;;;;;5094465;28;20058;-64
2022/08/28 07:06:17;;;;;;;12.30;3.75;;;14.80;99.90;;;;;;5105253;28;20578;-64
2022/08/28 07:08:43;;;;;;;10.05;3.30;;;14.90;99.90;;;;;;5108769;28;20059;-64
2022/08/28 07:11:10;;;;;;;8.70;3.75;;;15.00;99.90;;;;;;5109000;28;20035;-64
2022/08/28 07:13:36;;;;;;;14.13;3.28;;;15.10;99.90;;;;;;5100135;28;20034;-65
2022/08/28 07:16:02;;;;;;;8.60;3.25;;;15.20;99.90;;;;;;5104879;28;20041;-65
2022/08/28 07:18:28;;;;;;;7.53;2.63;;;15.40;99.90;;;;;;5108957;28;20177;-64
2022/08/28 07:20:56;;;;;;;8.88;3.15;;;15.60;99.90;;;;;;5096958;28;20114;-65
2022/08/28 07:23:22;;;;;;;9.80;3.00;;;15.80;99.90;;;;;;5096786;28;20052;-65
2022/08/28 07:25:47;;;;;;;7.65;2.40;;;15.90;99.90;;;;;;5100345;28;20501;-64
2022/08/28 07:28:13;;;;;;;10.65;2.60;;;16.00;99.90;;;;;;5104208;28;20120;-64
2022/08/28 07:30:39;;;;;;;10.70;3.00;;;16.00;99.90;;;;;;5095648;28;20036;-65
2022/08/28 07:33:04;;;;;;;8.18;2.60;;;16.00;99.90;;;;;;5100472;28;20505;-64
2022/08/28 07:35:30;;;;;;;6.30;2.20;;;16.10;99.90;;;;;;5095995;28;20035;-64
2022/08/28 07:37:56;;;;;;;8.02;2.70;;;16.20;99.90;;;;;;5102459;28;20074;-64
2022/08/28 07:40:22;;;;;;;8.68;2.83;;;16.20;99.90;;;;;;5085825;28;20165;-65
2022/08/28 07:45:32;;;;;;;8.07;2.50;;;16.40;99.90;;;;;;5094748;28;20039;-64
2022/08/28 07:47:58;;;;;;;8.88;2.50;;;16.50;99.90;;;;;;5104957;28;20062;-64
2022/08/28 07:50:23;;;;;;;7.43;2.30;;;16.50;99.90;;;;;;5111086;28;20473;-65
2022/08/28 07:52:49;;;;;;;6.88;2.33;;;16.60;99.90;;;;;;5109575;28;20088;-65
2022/08/28 07:55:15;;;;;;;5.75;2.03;;;16.70;99.90;;;;;;5102694;28;20039;-65
2022/08/28 07:57:42;;;;;;;10.55;2.50;;;16.80;99.90;;;;;;5111341;28;20597;-64
2022/08/28 08:00:08;;;;;;;8.80;2.75;;;16.90;99.90;;;;;;5093396;28;20047;-65
2022/08/28 08:02:34;;;;;;;8.32;2.47;;;17.00;99.90;;;;;;5103597;28;20032;-64
2022/08/28 08:05:00;;;;;;;8.63;2.10;;;17.00;99.90;;;;;;5108501;28;20044;-64
2022/08/28 08:07:25;;;;;;;6.75;2.30;;;17.10;99.90;;;;;;5111356;28;20039;-65
2022/08/28 08:09:51;;;;;;;8.95;2.22;;;17.10;99.90;;;;;;5106166;28;20032;-64
2022/08/28 08:12:17;;;;;;;7.50;2.10;;;17.20;99.90;;;;;;5104024;28;20440;-64
2022/08/28 08:14:42;;;;;;;8.40;2.30;;;17.30;99.90;;;;;;5110999;28;20106;-64
2022/08/28 08:17:09;;;;;;;3.95;2.58;;;17.40;99.90;;;;;;5084925;28;20071;-64
2022/08/28 08:19:35;;;;;;;8.05;2.40;;;17.50;99.90;;;;;;5098291;28;20035;-64
2022/08/28 08:22:01;;;;;;;9.48;2.38;;;17.50;99.90;;;;;;5107099;28;20043;-64
2022/08/28 08:24:29;;;;;;;10.18;2.10;;;17.70;99.90;;;;;;5110898;28;20604;-64
2022/08/28 08:26:58;;;;;;;7.32;2.28;;;17.70;99.90;;;;;;5103063;28;20114;-65
2022/08/28 08:29:24;;;;;;;8.45;1.98;;;17.80;99.90;;;;;;5102419;28;20089;-64
2022/08/28 08:32:05;;;;;;;7.63;2.42;;;17.90;99.90;;;;;;5110376;28;20047;-64
2022/08/28 08:34:32;;;;;;;;;;;17.90;99.90;;;;;;5109185;28;20063;-64
2022/08/28 08:36:58;;;;;;;7.05;2.40;;;17.70;99.90;;;;;;5104249;28;20360;-64
2022/08/28 08:39:23;;;;;;;6.20;1.95;;;17.60;99.90;;;;;;5091460;28;20118;-65
2022/08/28 08:41:54;;;;;;;5.18;1.98;;;17.60;99.90;;;;;;5110553;28;20588;-64
2022/08/28 08:44:28;;;;;;;5.70;2.65;;;17.70;99.90;;;;;;5099192;28;20043;-64
2022/08/28 08:47:02;;;;;;;7.00;1.83;;;18.00;99.90;;;;;;5110386;28;20036;-64
2022/08/28 08:49:33;;;;;;;11.45;1.98;;;18.30;99.90;;;;;;5110794;28;20649;-64
2022/08/28 08:52:11;;;;;;;5.47;1.65;;;18.60;99.90;;;;;;5110709;28;20043;-65
2022/08/28 08:54:47;;;;;;;11.30;2.22;;;18.60;99.90;;;;;;5096810;28;20028;-64
2022/08/28 08:57:14;;;;;;;5.18;1.70;;;18.70;99.90;;;;;;5108626;28;20032;-64
2022/08/28 08:59:40;;;;;;;5.68;2.00;;;18.80;99.90;;;;;;5109973;28;20081;-66
2022/08/28 09:02:22;;;;;;;6.75;2.00;;;18.90;99.90;;;;;;5097056;28;20046;-64
2022/08/28 09:04:58;;;;;;;5.30;2.00;;;19.00;99.90;;;;;;5097231;28;20044;-64
2022/08/28 09:07:57;;;;;;;2.85;1.67;;;19.00;99.80;;;;;;5090655;28;20040;-64
2022/08/28 09:10:30;;;;;;;6.00;2.00;;;19.10;99.00;;;;;;5095461;28;22309;-65
2022/08/28 09:13:01;;;;;;;7.78;2.22;;;19.20;99.90;;;;;;5105893;28;20039;-64
2022/08/28 09:15:37;;;;;;;;;;;19.50;99.20;;;;;;5110716;28;20118;-64
2022/08/28 09:18:26;;;;;;;6.97;1.80;;;19.70;96.90;;;;;;5104373;28;20296;-65
2022/08/28 09:20:58;;;;;;;6.00;1.80;;;20.00;97.20;;;;;;5109863;28;20063;-64
2022/08/28 09:23:26;;;;;;;6.35;1.95;;;19.90;97.10;;;;;;5110490;28;20040;-64
2022/08/28 09:25:59;;;;;;;6.55;1.70;;;19.90;98.70;;;;;;5101027;28;20039;-64
2022/08/28 09:28:39;;;;;;;6.03;1.60;;;19.70;97.00;;;;;;5109821;28;20110;-64
2022/08/28 09:31:07;;;;;;;6.63;2.38;;;19.50;97.70;;;;;;5110171;28;20040;-64
2022/08/28 09:33:41;;;;;;;8.23;2.78;;;19.40;98.30;;;;;;5100202;28;20055;-65
2022/08/28 09:36:31;;;;;;;5.32;2.20;;;19.40;97.70;;;;;;5088764;28;20148;-64
2022/08/28 09:39:09;;;;;;;5.65;1.80;;;19.60;96.70;;;;;;5110195;28;20059;-65
2022/08/28 09:44:53;;;;;;;8.93;2.10;;;19.70;96.90;;;;;;5099680;28;20397;-64
2022/08/28 09:47:44;;;;;;;5.35;1.70;;;19.80;96.70;;;;;;5102253;28;20044;-64
2022/08/28 09:50:36;;;;;;;9.90;2.03;;;19.90;96.50;;;;;;5089327;28;20093;-65
2022/08/28 09:53:08;;;;;;;11.32;2.08;;;19.90;95.80;;;;;;5103299;28;20054;-65
2022/08/28 09:55:54;;;;;;;4.50;2.38;;;19.90;96.30;;;;;;5106224;28;20147;-65
2022/08/28 09:58:22;;;;;;;7.30;1.50;;;20.00;95.60;;;;;;5093581;28;20075;-65
2022/08/28 10:00:57;;;;;;;5.55;2.30;;;19.90;96.80;;;;;;5092700;28;20039;-65
2022/08/28 10:03:41;;;;;;;4.82;1.92;;;20.00;97.50;;;;;;5077698;28;20047;-65
2022/08/28 10:06:28;;;;;;;6.43;2.05;;;20.00;94.60;;;;;;5104804;28;20046;-64
2022/08/28 10:09:05;;;;;;;7.10;2.30;;;20.10;95.10;;;;;;5103064;28;20031;-65
2022/08/28 10:11:52;;;;;;;5.35;2.13;;;20.30;95.80;;;;;;5104887;28;20468;-64
2022/08/28 10:14:24;;;;;;;6.97;2.13;;;20.60;97.40;;;;;;5111818;28;20032;-65
2022/08/28 10:17:07;;;;;;;4.80;2.00;;;20.90;95.30;;;;;;5112599;28;20063;-64
2022/08/28 10:19:43;;;;;;;6.63;1.83;;;21.10;93.80;;;;;;5109261;28;20159;-64
2022/08/28 10:22:40;;;;;;;6.32;2.50;;;20.80;92.70;;;;;;5111733;28;20043;-64
2022/08/28 10:25:14;;;;;;;5.15;2.08;;;20.30;92.90;;;;;;5095184;28;20375;-65
2022/08/28 10:28:10;;;;;;;5.47;2.10;;;20.10;94.60;;;;;;5112869;28;20078;-65
2022/08/28 10:31:04;;;;;;;4.78;1.90;;;20.00;95.00;;;;;;5092675;28;20032;-65
2022/08/28 10:34:14;;;;;;;5.22;2.10;;;20.50;95.70;;;;;;5082870;28;20040;-65
2022/08/28 10:36:41;;;;;;;5.15;1.80;;;20.90;93.70;;;;;;5102825;28;20078;-65
2022/08/28 10:39:19;;;;;;;4.63;2.05;;;20.80;92.70;;;;;;5110427;28;20110;-65
2022/08/28 10:41:53;;;;;;;5.85;2.00;;;20.50;92.70;;;;;;5081380;28;20032;-65
2022/08/28 10:44:25;;;;;;;5.25;2.10;;;20.30;94.10;;;;;;5103048;28;20059;-65
2022/08/28 10:46:56;;;;;;;6.28;1.75;;;20.40;94.80;;;;;;5097565;28;20028;-65
2022/08/28 10:49:26;;;;;;;;;;;20.70;93.40;;;;;;5104147;28;20161;-65
2022/08/28 10:52:03;;;;;;;3.50;1.65;;;20.90;92.20;;;;;;5104056;28;20444;-64
2022/08/28 10:54:50;;;;;;;7.57;2.08;;;21.00;93.10;;;;;;5101753;28;20492;-64
2022/08/28 10:57:30;;;;;;;7.22;1.88;;;20.80;93.00;;;;;;5097441;28;20113;-64
2022/08/28 10:59:59;;;;;;;4.78;2.10;;;20.60;92.60;;;;;;5104076;28;20040;-64
2022/08/28 11:02:27;;;;;;;6.07;2.25;;;20.60;94.00;;;;;;5102712;28;20032;-64
2022/08/28 11:04:56;;;;;;;3.50;2.17;;;21.00;94.80;;;;;;5101213;28;20548;-65
2022/08/28 11:07:30;;;;;;;9.52;2.00;;;21.20;93.90;;;;;;5097503;28;20065;-65
2022/08/28 11:10:20;;;;;;;4.50;2.13;;;21.10;91.80;;;;;;5101711;28;20032;-64
2022/08/28 11:12:50;;;;;;;5.25;2.20;;;20.70;92.40;;;;;;5102459;28;20115;-64
2022/08/28 11:15:30;;;;;;;7.05;2.28;;;20.80;94.00;;;;;;5096553;28;20039;-65
2022/08/28 11:18:17;;;;;;;5.40;2.08;;;20.70;91.50;;;;;;5103218;28;20038;-64
2022/08/28 11:21:14;;;;;;;6.40;2.00;;;20.90;91.90;;;;;;5109311;22;20487;-64
2022/08/28 11:24:07;;;;;;;4.13;1.90;;;21.00;90.40;;;;;;5064403;28;20067;-65
2022/08/28 11:27:11;;;;;;;4.70;2.25;;;21.40;90.40;;;;;;5063749;28;20032;-66
2022/08/28 11:29:58;;;;;;;5.18;1.85;;;21.80;90.50;;;;;;5068414;28;20562;-65
2022/08/28 11:32:30;;;;;;;7.78;2.38;;;21.70;86.60;;;;;;5050474;28;20090;-65
2022/08/28 11:35:09;;;;;;;5.70;2.00;;;21.80;91.00;;;;;;5051303;28;20044;-65
2022/08/28 11:37:47;;;;;;;8.35;2.03;;;21.40;91.00;;;;;;5051453;28;20510;-65
2022/08/28 11:40:28;;;;;;;4.90;2.10;;;21.20;90.20;;;;;;5051302;28;20054;-65
2022/08/28 11:43:15;;;;;;;7.70;2.17;;;20.90;91.70;;;;;;5058682;28;20583;-65
2022/08/28 11:45:46;;;;;;;5.93;2.60;;;20.50;90.20;;;;;;5051031;28;20049;-65
2022/08/28 11:48:27;;;;;;;5.75;2.10;;;20.50;91.20;;;;;;5047230;28;20041;-66
2022/08/28 11:51:03;;;;;;;8.77;2.40;;;20.80;90.70;;;;;;5049388;28;20045;-65
2022/08/28 11:53:44;;;;;;;9.77;2.33;;;21.30;90.90;;;;;;5051124;28;20271;-65
2022/08/28 11:56:38;;;;;;;3.15;1.92;;;21.80;90.50;;;;;;5051054;28;20048;-65
2022/08/28 11:59:35;;;;;;;5.18;2.10;;;21.50;87.70;;;;;;5053403;28;20529;-65
2022/08/28 12:02:42;;;;;;;6.60;1.90;;;20.90;88.20;;;;;;5049134;28;20052;-65
2022/08/28 12:05:14;;;;;;;6.53;1.50;;;20.60;89.40;;;;;;5052384;28;20037;-65
2022/08/28 12:07:42;;;;;;;4.30;2.05;;;20.30;91.10;;;;;;5061859;28;20063;-65
2022/08/28 12:10:24;;;;;;;4.47;1.98;;;20.20;92.10;;;;;;5070493;28;20055;-65
2022/08/28 12:12:57;;;;;;;5.55;2.30;;;20.50;92.70;;;;;;5046329;28;20138;-65
2022/08/28 12:15:26;;;;;;;5.68;2.33;;;21.10;92.50;;;;;;5050355;28;20048;-65
2022/08/28 12:17:56;;;;;;;5.78;2.20;;;21.60;91.60;;;;;;5055226;28;20045;-65
2022/08/28 12:20:49;;;;;;;9.18;2.42;;;21.80;90.40;;;;;;5049606;28;20037;-65
2022/08/28 12:23:26;;;;;;;5.03;1.92;;;21.70;89.30;;;;;;5056446;28;20048;-65
2022/08/28 12:26:34;;;;;;;4.70;2.05;;;21.40;90.30;;;;;;5050056;28;20052;-65
2022/08/28 12:29:15;;;;;;;4.95;2.00;;;21.00;89.00;;;;;;5003967;28;20641;-65
2022/08/28 12:32:11;;;;;;;3.75;1.80;;;20.90;90.40;;;;;;5006258;28;20077;-65
2022/08/28 12:34:51;;;;;;;3.55;1.90;;;21.10;90.10;;;;;;5042623;28;20044;-65
2022/08/28 12:37:23;;;;;;;3.67;2.07;;;20.90;90.40;;;;;;5053248;28;20036;-65
2022/08/28 12:39:50;;;;;;;3.65;1.40;;;21.20;86.40;;;;;;5049822;28;20040;-65
2022/08/28 12:42:18;;;;;;;3.15;1.60;;;21.50;84.30;;;;;;5049690;28;20430;-65
2022/08/28 12:44:45;;;;;;;6.53;2.03;;;21.50;83.80;;;;;;5050443;28;20040;-65
2022/08/28 12:47:17;;;;;;;5.60;1.98;;;21.80;80.60;;;;;;5049126;28;20533;-65
2022/08/28 12:49:43;;;;;;;5.22;1.92;;;21.90;80.70;;;;;;5049827;28;20045;-65
2022/08/28 12:52:21;;;;;;;4.50;1.75;;;22.30;82.60;;;;;;5049584;28;20040;-65
2022/08/28 12:54:48;;;;;;;7.63;2.50;;;22.40;81.00;;;;;;5055024;28;20033;-64
2022/08/28 12:57:18;;;;;;;3.58;1.98;;;21.80;79.80;;;;;;5057826;28;20449;-65
2022/08/28 12:59:46;;;;;;;6.00;2.47;;;21.70;79.70;;;;;;5049826;28;20522;-65
2022/08/28 13:02:32;;;;;;;5.30;1.90;;;22.00;80.10;;;;;;5032203;28;20059;-65
2022/08/28 13:05:07;;;;;;;4.43;2.50;;;22.30;78.40;;;;;;5049382;28;20060;-66
2022/08/28 13:07:39;;;;;;;6.45;2.35;;;22.70;78.10;;;;;;5050140;28;20040;-65